American Integrity — WDD2875 — position and weather

sailwx.info

Track history (hours):
 
Tides and Currents Weather Stations Pressure Air Temp Water Temp Dewpoint Dewpoint Depression Visibility Wind Speed Wind Dir Waves Ship Positions

American Integrity

Owner: American Steamship Company, Williamsville, NY. More information available from US FCC via Universal Licensing System and Coast Guard Vessel Documentation Center.

Last reported at 2017-Jul-25 14:58 UTC. Time now 2017-Jul-26 02:45 UTC.
Position N 47°01' W 091°40'.

; draft 8 m.

Type: Cargo ship. MMSI: 367120990.

Date/timePositionNaut miles runAvg speedWind from/ knotsBaromVisibWave heightAir tempDewpointWater temp
2017-Jul-25 14:58N 47°01' W 091°40'10211.3
2017-Jul-25 06:00N 47°12' W 089°12'15230.4 180 / 141015.9 16.8
2017-Jul-25 01:00N 49°30' W 087°36'23014.0 200 / 21016.010.8 16.1
2017-Jul-24 08:31N 46°24' W 084°14'0 8.2
2017-Jul-24 08:29N 46°24' W 084°14'10 7.7
2017-Jul-24 07:11N 46°15' W 084°06'2 8.1
2017-Jul-24 06:53N 46°13' W 084°07'710.2
2017-Jul-24 06:10N 46°07' W 084°01'4 9.5
2017-Jul-24 05:42N 46°03' W 083°58'5 9.4
2017-Jul-24 05:08N 45°59' W 083°53'1311.9
2017-Jul-24 04:02N 45°47' W 083°44'112.5
2017-Jul-24 03:59N 45°47' W 083°44'612.6
2017-Jul-24 03:30N 45°42' W 083°39'612.5
2017-Jul-24 03:01N 45°37' W 083°34'612.6
2017-Jul-24 02:30N 45°31' W 083°29'612.5
2017-Jul-24 02:00N 45°26' W 083°24'612.5
2017-Jul-24 01:30N 45°21' W 083°18'13 8.4
2017-Jul-24 00:00N 45°12' W 083°06'21 0.5 050 / 51009.0 5.4 16.6
2017-Jul-22 01:03N 45°31' W 083°20'111.8
2017-Jul-22 01:00N 45°31' W 083°20'612.0
2017-Jul-22 00:30N 45°36' W 083°26'612.1
2017-Jul-22 00:00N 45°40' W 083°32'612.1
2017-Jul-21 23:30N 45°45' W 083°38'1811.4
2017-Jul-21 21:57N 45°58' W 083°54'19 8.6
2017-Jul-21 19:46N 46°13' W 084°10'22 3.6
2017-Jul-21 13:33N 46°28' W 084°34'1 7.5
2017-Jul-21 13:27N 46°29' W 084°35'4911.0
2017-Jul-21 09:00N 46°54' W 085°36'13 6.3 250 / 51012.8 16.1
2017-Jul-21 07:00N 47°06' W 085°30'8917.8 250 / 6 18.3
2017-Jul-21 02:00N 47°30' W 087°36'67 9.6 290 / 3 0.5 17.2
2017-Jul-20 19:00N 47°12' W 089°12'6513.1 250 / 211013.2 15.5
2017-Jul-20 14:00N 47°18' W 090°48'3312.6 240 / 4985.4 0.5 19.4
2017-Jul-20 11:22N 47°00' W 091°29'411.9
2017-Jul-20 11:00N 46°58' W 091°35'611.9
2017-Jul-20 10:31N 46°55' W 091°42'612.0
2017-Jul-20 10:01N 46°52' W 091°50'611.9
2017-Jul-20 09:31N 46°50' W 091°57'510.9
2017-Jul-20 09:01N 46°47' W 092°04'2 3.5
2017-Jul-20 08:31N 46°46' W 092°06'1 2.7
2017-Jul-20 08:00N 46°45' W 092°07'0 0.0
2017-Jul-20 07:31N 46°45' W 092°07'0 0.0
2017-Jul-20 07:00N 46°45' W 092°07'0 0.0
2017-Jul-20 06:30N 46°45' W 092°07'0 0.0
2017-Jul-20 05:58N 46°45' W 092°07'0 0.0
2017-Jul-20 05:29N 46°45' W 092°07'0 0.0
2017-Jul-20 05:00N 46°45' W 092°07'0 0.0
2017-Jul-20 04:30N 46°45' W 092°07'0 0.0
2017-Jul-20 04:00N 46°45' W 092°07'0 0.0
2017-Jul-20 03:30N 46°45' W 092°07'0 0.0
2017-Jul-20 03:00N 46°45' W 092°07'0 0.0
2017-Jul-20 02:30N 46°45' W 092°07'0 0.0
2017-Jul-20 02:00N 46°45' W 092°07'0 0.0
2017-Jul-20 01:30N 46°45' W 092°07'0 0.0
2017-Jul-20 01:00N 46°45' W 092°07'0 0.0
2017-Jul-20 00:30N 46°45' W 092°07'0 0.0
2017-Jul-20 00:00N 46°45' W 092°07'0 0.0
2017-Jul-19 23:30N 46°45' W 092°07'0 0.0
2017-Jul-19 23:01N 46°45' W 092°07'0 0.0
2017-Jul-19 22:30N 46°45' W 092°07'0 0.0
2017-Jul-19 22:00N 46°45' W 092°07'0 0.0
2017-Jul-19 21:31N 46°45' W 092°07'0 0.2
2017-Jul-19 21:01N 46°45' W 092°07'1 2.0
2017-Jul-19 20:31N 46°45' W 092°06'2 4.0
2017-Jul-19 20:00N 46°47' W 092°05'611.8
2017-Jul-19 19:31N 46°49' W 091°57'612.6
2017-Jul-19 19:00N 46°52' W 091°48'612.6
2017-Jul-19 18:30N 46°54' W 091°40'612.7
2017-Jul-19 18:01N 46°56' W 091°31'612.8
2017-Jul-19 17:31N 46°59' W 091°22'712.8
2017-Jul-19 17:00N 47°01' W 091°13'19312.1
2017-Jul-19 01:00N 47°12' W 086°30'100 8.5 240 / 4 0.1 10.5
2017-Jul-18 13:15N 46°29' W 084°18'2 7.0
2017-Jul-18 12:59N 46°28' W 084°17'3 6.6
2017-Jul-18 12:30N 46°25' W 084°15'4 8.8
2017-Jul-18 12:00N 46°21' W 084°12'4 7.1
2017-Jul-18 11:29N 46°19' W 084°07'4 7.8
2017-Jul-18 11:00N 46°15' W 084°06'4 8.1
2017-Jul-18 10:30N 46°11' W 084°06'511.0
2017-Jul-18 10:00N 46°07' W 084°01'5 9.7
2017-Jul-18 09:30N 46°03' W 083°57'5 9.8
2017-Jul-18 09:00N 45°59' W 083°53'611.9
2017-Jul-18 08:31N 45°53' W 083°51'712.8
2017-Jul-18 07:59N 45°48' W 083°45'612.8
2017-Jul-18 07:30N 45°43' W 083°40'713.1
2017-Jul-18 07:00N 45°38' W 083°35'613.2
2017-Jul-18 06:30N 45°32' W 083°29'713.2
2017-Jul-18 06:00N 45°27' W 083°24'713.3
2017-Jul-18 05:30N 45°21' W 083°19'611.0
2017-Jul-18 05:00N 45°18' W 083°12'1114.8 1015.927.0 17.2
2017-Jul-18 04:14N 45°08' W 083°05'1814.8
2017-Jul-18 03:00N 44°54' W 082°48'4912.3 220 / 1 10.8 18.3
2017-Jul-17 23:00N 44°12' W 082°12'4310.7 310 / 101016.510.8 18.3 18.3
2017-Jul-17 19:00N 43°30' W 082°00'135 3.0 350 / 81017.027.0 19.9
2017-Jul-15 21:07N 45°32' W 083°21'311.8
2017-Jul-15 20:54N 45°34' W 083°24'511.8
2017-Jul-15 20:30N 45°38' W 083°28'611.8
2017-Jul-15 20:00N 45°42' W 083°34'611.8
2017-Jul-15 19:30N 45°46' W 083°40'811.8
2017-Jul-15 18:47N 45°53' W 083°48'411.8
2017-Jul-15 18:29N 45°55' W 083°52'510.4
2017-Jul-15 18:00N 45°60' W 083°54'8 9.1
2017-Jul-15 17:08N 46°06' W 084°01'1 9.3
2017-Jul-15 17:00N 46°07' W 084°01'10 8.2
2017-Jul-15 15:50N 46°14' W 084°11'  
Track history (hours):
 
Tides and Currents Weather Stations Pressure Air Temp Water Temp Dewpoint Dewpoint Depression Visibility Wind Speed Wind Dir Waves Ship Positions

American Integrity

Owner: American Steamship Company, Williamsville, NY. More information available from US FCC via Universal Licensing System and Coast Guard Vessel Documentation Center.

Last reported at 2017-Jul-25 14:58 UTC. Time now 2017-Jul-26 02:45 UTC.
Position N 47°01' W 091°40'.

; draft 8 m.

Type: Cargo ship. MMSI: 367120990.

Date/timePositionNaut miles runAvg speedWind from/ knotsBaromVisibWave heightAir tempDewpointWater temp
2017-Jul-25 14:58N 47°01' W 091°40'10211.3
2017-Jul-25 06:00N 47°12' W 089°12'15230.4 180 / 141015.9 16.8
2017-Jul-25 01:00N 49°30' W 087°36'23014.0 200 / 21016.010.8 16.1
2017-Jul-24 08:31N 46°24' W 084°14'0 8.2
2017-Jul-24 08:29N 46°24' W 084°14'10 7.7
2017-Jul-24 07:11N 46°15' W 084°06'2 8.1
2017-Jul-24 06:53N 46°13' W 084°07'710.2
2017-Jul-24 06:10N 46°07' W 084°01'4 9.5
2017-Jul-24 05:42N 46°03' W 083°58'5 9.4
2017-Jul-24 05:08N 45°59' W 083°53'1311.9
2017-Jul-24 04:02N 45°47' W 083°44'112.5
2017-Jul-24 03:59N 45°47' W 083°44'612.6
2017-Jul-24 03:30N 45°42' W 083°39'612.5
2017-Jul-24 03:01N 45°37' W 083°34'612.6
2017-Jul-24 02:30N 45°31' W 083°29'612.5
2017-Jul-24 02:00N 45°26' W 083°24'612.5
2017-Jul-24 01:30N 45°21' W 083°18'13 8.4
2017-Jul-24 00:00N 45°12' W 083°06'21 0.5 050 / 51009.0 5.4 16.6
2017-Jul-22 01:03N 45°31' W 083°20'111.8
2017-Jul-22 01:00N 45°31' W 083°20'612.0
2017-Jul-22 00:30N 45°36' W 083°26'612.1
2017-Jul-22 00:00N 45°40' W 083°32'612.1
2017-Jul-21 23:30N 45°45' W 083°38'1811.4
2017-Jul-21 21:57N 45°58' W 083°54'19 8.6
2017-Jul-21 19:46N 46°13' W 084°10'22 3.6
2017-Jul-21 13:33N 46°28' W 084°34'1 7.5
2017-Jul-21 13:27N 46°29' W 084°35'4911.0
2017-Jul-21 09:00N 46°54' W 085°36'13 6.3 250 / 51012.8 16.1
2017-Jul-21 07:00N 47°06' W 085°30'8917.8 250 / 6 18.3
2017-Jul-21 02:00N 47°30' W 087°36'67 9.6 290 / 3 0.5 17.2
2017-Jul-20 19:00N 47°12' W 089°12'6513.1 250 / 211013.2 15.5
2017-Jul-20 14:00N 47°18' W 090°48'3312.6 240 / 4985.4 0.5 19.4
2017-Jul-20 11:22N 47°00' W 091°29'411.9
2017-Jul-20 11:00N 46°58' W 091°35'611.9
2017-Jul-20 10:31N 46°55' W 091°42'612.0
2017-Jul-20 10:01N 46°52' W 091°50'611.9
2017-Jul-20 09:31N 46°50' W 091°57'510.9
2017-Jul-20 09:01N 46°47' W 092°04'2 3.5
2017-Jul-20 08:31N 46°46' W 092°06'1 2.7
2017-Jul-20 08:00N 46°45' W 092°07'0 0.0
2017-Jul-20 07:31N 46°45' W 092°07'0 0.0
2017-Jul-20 07:00N 46°45' W 092°07'0 0.0
2017-Jul-20 06:30N 46°45' W 092°07'0 0.0
2017-Jul-20 05:58N 46°45' W 092°07'0 0.0
2017-Jul-20 05:29N 46°45' W 092°07'0 0.0
2017-Jul-20 05:00N 46°45' W 092°07'0 0.0
2017-Jul-20 04:30N 46°45' W 092°07'0 0.0
2017-Jul-20 04:00N 46°45' W 092°07'0 0.0
2017-Jul-20 03:30N 46°45' W 092°07'0 0.0
2017-Jul-20 03:00N 46°45' W 092°07'0 0.0
2017-Jul-20 02:30N 46°45' W 092°07'0 0.0
2017-Jul-20 02:00N 46°45' W 092°07'0 0.0
2017-Jul-20 01:30N 46°45' W 092°07'0 0.0
2017-Jul-20 01:00N 46°45' W 092°07'0 0.0
2017-Jul-20 00:30N 46°45' W 092°07'0 0.0
2017-Jul-20 00:00N 46°45' W 092°07'0 0.0
2017-Jul-19 23:30N 46°45' W 092°07'0 0.0
2017-Jul-19 23:01N 46°45' W 092°07'0 0.0
2017-Jul-19 22:30N 46°45' W 092°07'0 0.0
2017-Jul-19 22:00N 46°45' W 092°07'0 0.0
2017-Jul-19 21:31N 46°45' W 092°07'0 0.2
2017-Jul-19 21:01N 46°45' W 092°07'1 2.0
2017-Jul-19 20:31N 46°45' W 092°06'2 4.0
2017-Jul-19 20:00N 46°47' W 092°05'611.8
2017-Jul-19 19:31N 46°49' W 091°57'612.6
2017-Jul-19 19:00N 46°52' W 091°48'612.6
2017-Jul-19 18:30N 46°54' W 091°40'612.7
2017-Jul-19 18:01N 46°56' W 091°31'612.8
2017-Jul-19 17:31N 46°59' W 091°22'712.8
2017-Jul-19 17:00N 47°01' W 091°13'19312.1
2017-Jul-19 01:00N 47°12' W 086°30'100 8.5 240 / 4 0.1 10.5
2017-Jul-18 13:15N 46°29' W 084°18'2 7.0
2017-Jul-18 12:59N 46°28' W 084°17'3 6.6
2017-Jul-18 12:30N 46°25' W 084°15'4 8.8
2017-Jul-18 12:00N 46°21' W 084°12'4 7.1
2017-Jul-18 11:29N 46°19' W 084°07'4 7.8
2017-Jul-18 11:00N 46°15' W 084°06'4 8.1
2017-Jul-18 10:30N 46°11' W 084°06'511.0
2017-Jul-18 10:00N 46°07' W 084°01'5 9.7
2017-Jul-18 09:30N 46°03' W 083°57'5 9.8
2017-Jul-18 09:00N 45°59' W 083°53'611.9
2017-Jul-18 08:31N 45°53' W 083°51'712.8
2017-Jul-18 07:59N 45°48' W 083°45'612.8
2017-Jul-18 07:30N 45°43' W 083°40'713.1
2017-Jul-18 07:00N 45°38' W 083°35'613.2
2017-Jul-18 06:30N 45°32' W 083°29'713.2
2017-Jul-18 06:00N 45°27' W 083°24'713.3
2017-Jul-18 05:30N 45°21' W 083°19'611.0
2017-Jul-18 05:00N 45°18' W 083°12'1114.8 1015.927.0 17.2
2017-Jul-18 04:14N 45°08' W 083°05'1814.8
2017-Jul-18 03:00N 44°54' W 082°48'4912.3 220 / 1 10.8 18.3
2017-Jul-17 23:00N 44°12' W 082°12'4310.7 310 / 101016.510.8 18.3 18.3
2017-Jul-17 19:00N 43°30' W 082°00'135 3.0 350 / 81017.027.0 19.9
2017-Jul-15 21:07N 45°32' W 083°21'311.8
2017-Jul-15 20:54N 45°34' W 083°24'511.8
2017-Jul-15 20:30N 45°38' W 083°28'611.8
2017-Jul-15 20:00N 45°42' W 083°34'611.8
2017-Jul-15 19:30N 45°46' W 083°40'811.8
2017-Jul-15 18:47N 45°53' W 083°48'411.8
2017-Jul-15 18:29N 45°55' W 083°52'510.4
2017-Jul-15 18:00N 45°60' W 083°54'8 9.1
2017-Jul-15 17:08N 46°06' W 084°01'1 9.3
2017-Jul-15 17:00N 46°07' W 084°01'10 8.2
2017-Jul-15 15:50N 46°14' W 084°11'  

Dump ship's entire track history